sensor_id;sensor_type;location;lat;lon;timestamp;temperature;humidity
32728;DHT22;55292;51.844;19.246;2024-02-14T00:00:55;3.00;99.90
32728;DHT22;55292;51.844;19.246;2024-02-14T00:11:17;2.80;99.90
32728;DHT22;55292;51.844;19.246;2024-02-14T00:16:20;2.70;99.90
32728;DHT22;55292;51.844;19.246;2024-02-14T00:21:23;2.50;99.90
32728;DHT22;55292;51.844;19.246;2024-02-14T00:31:32;2.60;99.90
32728;DHT22;55292;51.844;19.246;2024-02-14T00:36:36;2.60;99.90
32728;DHT22;55292;51.844;19.246;2024-02-14T00:41:39;2.70;99.90
32728;DHT22;55292;51.844;19.246;2024-02-14T00:46:42;2.50;99.90
32728;DHT22;55292;51.844;19.246;2024-02-14T00:56:48;2.50;99.90
32728;DHT22;55292;51.844;19.246;2024-02-14T01:01:51;2.30;99.90
32728;DHT22;55292;51.844;19.246;2024-02-14T01:06:54;2.00;99.90
32728;DHT22;55292;51.844;19.246;2024-02-14T01:11:58;1.70;99.90
32728;DHT22;55292;51.844;19.246;2024-02-14T01:17:01;1.50;99.90
32728;DHT22;55292;51.844;19.246;2024-02-14T01:22:06;1.30;99.90
32728;DHT22;55292;51.844;19.246;2024-02-14T01:27:11;1.20;99.90
32728;DHT22;55292;51.844;19.246;2024-02-14T01:32:14;1.10;99.90
32728;DHT22;55292;51.844;19.246;2024-02-14T02:02:36;0.00;99.90
32728;DHT22;55292;51.844;19.246;2024-02-14T02:07:42;-0.10;99.90
32728;DHT22;55292;51.844;19.246;2024-02-14T02:22:55;-0.40;99.90
32728;DHT22;55292;51.844;19.246;2024-02-14T02:27:57;-0.70;99.90
32728;DHT22;55292;51.844;19.246;2024-02-14T02:33:01;-0.60;99.90
32728;DHT22;55292;51.844;19.246;2024-02-14T02:38:05;-0.60;99.90
32728;DHT22;55292;51.844;19.246;2024-02-14T02:43:07;-0.90;99.90
32728;DHT22;55292;51.844;19.246;2024-02-14T02:48:10;-0.90;99.90
32728;DHT22;55292;51.844;19.246;2024-02-14T02:53:13;-0.80;99.90
32728;DHT22;55292;51.844;19.246;2024-02-14T02:58:16;-1.00;99.90
32728;DHT22;55292;51.844;19.246;2024-02-14T03:03:19;-1.00;99.90
32728;DHT22;55292;51.844;19.246;2024-02-14T03:08:22;-0.90;99.90
32728;DHT22;55292;51.844;19.246;2024-02-14T03:13:28;-1.10;99.90
32728;DHT22;55292;51.844;19.246;2024-02-14T03:18:31;-1.10;99.90
32728;DHT22;55292;51.844;19.246;2024-02-14T03:23:36;-0.90;99.90
32728;DHT22;55292;51.844;19.246;2024-02-14T03:28:39;-0.90;99.90
32728;DHT22;55292;51.844;19.246;2024-02-14T03:33:42;-1.00;99.90
32728;DHT22;55292;51.844;19.246;2024-02-14T03:38:45;-1.10;99.90
32728;DHT22;55292;51.844;19.246;2024-02-14T03:43:48;-1.20;99.90
32728;DHT22;55292;51.844;19.246;2024-02-14T03:48:51;-1.50;99.90
32728;DHT22;55292;51.844;19.246;2024-02-14T03:53:55;-1.40;99.90
32728;DHT22;55292;51.844;19.246;2024-02-14T03:59:08;-1.50;99.90
32728;DHT22;55292;51.844;19.246;2024-02-14T04:04:11;-1.40;99.90
32728;DHT22;55292;51.844;19.246;2024-02-14T04:09:14;-1.20;99.90
32728;DHT22;55292;51.844;19.246;2024-02-14T04:14:17;-1.40;99.90
32728;DHT22;55292;51.844;19.246;2024-02-14T04:19:20;-1.50;99.90
32728;DHT22;55292;51.844;19.246;2024-02-14T04:24:22;-1.70;99.90
32728;DHT22;55292;51.844;19.246;2024-02-14T04:29:25;-1.60;99.90
32728;DHT22;55292;51.844;19.246;2024-02-14T04:34:29;-1.80;99.90
32728;DHT22;55292;51.844;19.246;2024-02-14T04:39:33;-1.80;99.90
32728;DHT22;55292;51.844;19.246;2024-02-14T04:49:39;-1.90;99.90
32728;DHT22;55292;51.844;19.246;2024-02-14T04:54:42;-1.70;99.90
32728;DHT22;55292;51.844;19.246;2024-02-14T04:59:45;-1.80;99.90
32728;DHT22;55292;51.844;19.246;2024-02-14T05:09:51;-1.80;99.90
32728;DHT22;55292;51.844;19.246;2024-02-14T05:14:54;-1.70;99.90
32728;DHT22;55292;51.844;19.246;2024-02-14T05:25:00;-1.80;99.90
32728;DHT22;55292;51.844;19.246;2024-02-14T05:30:04;-1.90;99.90
32728;DHT22;55292;51.844;19.246;2024-02-14T05:35:12;-2.00;99.90
32728;DHT22;55292;51.844;19.246;2024-02-14T05:40:14;-2.00;99.90
32728;DHT22;55292;51.844;19.246;2024-02-14T05:50:20;-1.90;99.90
32728;DHT22;55292;51.844;19.246;2024-02-14T05:55:23;-2.00;99.90
32728;DHT22;55292;51.844;19.246;2024-02-14T06:00:26;-2.00;99.90
32728;DHT22;55292;51.844;19.246;2024-02-14T06:05:31;-2.10;99.90
32728;DHT22;55292;51.844;19.246;2024-02-14T06:10:33;-2.10;99.90
32728;DHT22;55292;51.844;19.246;2024-02-14T06:15:37;-2.10;99.90
32728;DHT22;55292;51.844;19.246;2024-02-14T06:20:39;-1.70;99.90
32728;DHT22;55292;51.844;19.246;2024-02-14T06:30:47;-1.40;99.90
32728;DHT22;55292;51.844;19.246;2024-02-14T06:35:50;-1.40;99.90
32728;DHT22;55292;51.844;19.246;2024-02-14T06:40:53;-1.20;99.90
32728;DHT22;55292;51.844;19.246;2024-02-14T06:45:56;-1.00;99.90
32728;DHT22;55292;51.844;19.246;2024-02-14T06:50:59;-0.80;99.90
32728;DHT22;55292;51.844;19.246;2024-02-14T06:56:02;-0.50;99.90
32728;DHT22;55292;51.844;19.246;2024-02-14T07:01:05;-0.50;99.90
32728;DHT22;55292;51.844;19.246;2024-02-14T07:06:07;0.00;99.90
32728;DHT22;55292;51.844;19.246;2024-02-14T07:11:10;0.00;99.90
32728;DHT22;55292;51.844;19.246;2024-02-14T07:16:13;0.10;99.90
32728;DHT22;55292;51.844;19.246;2024-02-14T07:21:16;0.10;99.90
32728;DHT22;55292;51.844;19.246;2024-02-14T07:26:19;0.10;99.90
32728;DHT22;55292;51.844;19.246;2024-02-14T07:31:24;0.50;99.90
32728;DHT22;55292;51.844;19.246;2024-02-14T07:36:31;0.50;99.90
32728;DHT22;55292;51.844;19.246;2024-02-14T07:41:34;0.70;99.90
32728;DHT22;55292;51.844;19.246;2024-02-14T07:46:37;1.30;99.90
32728;DHT22;55292;51.844;19.246;2024-02-14T07:51:41;1.40;99.90
32728;DHT22;55292;51.844;19.246;2024-02-14T07:56:43;1.70;99.90
32728;DHT22;55292;51.844;19.246;2024-02-14T08:01:46;1.80;99.90
32728;DHT22;55292;51.844;19.246;2024-02-14T08:06:49;1.90;99.90
32728;DHT22;55292;51.844;19.246;2024-02-14T08:11:52;2.10;99.90
32728;DHT22;55292;51.844;19.246;2024-02-14T08:16:56;2.30;99.90
32728;DHT22;55292;51.844;19.246;2024-02-14T08:21:58;2.40;99.90
32728;DHT22;55292;51.844;19.246;2024-02-14T08:27:02;2.60;99.90
32728;DHT22;55292;51.844;19.246;2024-02-14T08:32:09;2.80;99.90
32728;DHT22;55292;51.844;19.246;2024-02-14T08:37:11;3.10;99.90
32728;DHT22;55292;51.844;19.246;2024-02-14T08:42:15;3.30;99.90
32728;DHT22;55292;51.844;19.246;2024-02-14T08:47:17;3.60;99.90
32728;DHT22;55292;51.844;19.246;2024-02-14T08:52:20;3.80;99.90
32728;DHT22;55292;51.844;19.246;2024-02-14T08:57:23;2.60;99.90
32728;DHT22;55292;51.844;19.246;2024-02-14T09:02:26;4.30;99.90
32728;DHT22;55292;51.844;19.246;2024-02-14T09:07:29;4.50;99.90
32728;DHT22;55292;51.844;19.246;2024-02-14T09:12:35;4.80;99.90
32728;DHT22;55292;51.844;19.246;2024-02-14T09:17:38;5.00;99.90
32728;DHT22;55292;51.844;19.246;2024-02-14T09:22:42;5.30;99.90
32728;DHT22;55292;51.844;19.246;2024-02-14T09:27:45;5.50;99.90
32728;DHT22;55292;51.844;19.246;2024-02-14T09:32:50;5.60;99.90
32728;DHT22;55292;51.844;19.246;2024-02-14T09:37:53;5.70;99.90
32728;DHT22;55292;51.844;19.246;2024-02-14T09:42:57;5.70;99.90
32728;DHT22;55292;51.844;19.246;2024-02-14T09:48:04;6.00;99.90
32728;DHT22;55292;51.844;19.246;2024-02-14T09:53:10;6.20;99.90
32728;DHT22;55292;51.844;19.246;2024-02-14T09:58:13;6.40;99.90
32728;DHT22;55292;51.844;19.246;2024-02-14T10:03:17;6.60;99.90
32728;DHT22;55292;51.844;19.246;2024-02-14T10:08:20;6.80;99.90
32728;DHT22;55292;51.844;19.246;2024-02-14T10:13:28;6.90;99.90
32728;DHT22;55292;51.844;19.246;2024-02-14T10:18:32;7.10;99.90
32728;DHT22;55292;51.844;19.246;2024-02-14T10:23:34;7.20;99.90
32728;DHT22;55292;51.844;19.246;2024-02-14T10:28:43;7.20;99.90
32728;DHT22;55292;51.844;19.246;2024-02-14T10:33:52;7.30;99.90
32728;DHT22;55292;51.844;19.246;2024-02-14T10:38:56;7.30;99.90
32728;DHT22;55292;51.844;19.246;2024-02-14T10:44:02;7.40;99.90
32728;DHT22;55292;51.844;19.246;2024-02-14T10:49:07;7.50;99.90
32728;DHT22;55292;51.844;19.246;2024-02-14T10:54:11;7.40;99.90
32728;DHT22;55292;51.844;19.246;2024-02-14T10:59:17;7.50;99.90
32728;DHT22;55292;51.844;19.246;2024-02-14T11:04:21;7.60;99.90
32728;DHT22;55292;51.844;19.246;2024-02-14T11:09:36;7.70;99.90
32728;DHT22;55292;51.844;19.246;2024-02-14T11:14:44;7.80;99.90
32728;DHT22;55292;51.844;19.246;2024-02-14T11:19:48;7.90;99.90
32728;DHT22;55292;51.844;19.246;2024-02-14T11:24:51;7.70;99.90
32728;DHT22;55292;51.844;19.246;2024-02-14T11:29:53;7.80;99.90
32728;DHT22;55292;51.844;19.246;2024-02-14T11:34:56;7.70;99.90
32728;DHT22;55292;51.844;19.246;2024-02-14T11:40:01;7.70;99.90
32728;DHT22;55292;51.844;19.246;2024-02-14T11:45:05;7.80;99.90
32728;DHT22;55292;51.844;19.246;2024-02-14T11:50:08;7.80;99.90
32728;DHT22;55292;51.844;19.246;2024-02-14T11:55:12;7.90;99.90
32728;DHT22;55292;51.844;19.246;2024-02-14T12:00:18;7.90;99.90
32728;DHT22;55292;51.844;19.246;2024-02-14T12:05:21;8.00;99.90
32728;DHT22;55292;51.844;19.246;2024-02-14T12:10:24;8.00;99.90
32728;DHT22;55292;51.844;19.246;2024-02-14T12:15:27;8.20;99.90
32728;DHT22;55292;51.844;19.246;2024-02-14T12:20:30;8.00;99.90
32728;DHT22;55292;51.844;19.246;2024-02-14T12:25:33;8.00;99.90
32728;DHT22;55292;51.844;19.246;2024-02-14T12:30:46;8.20;99.90
32728;DHT22;55292;51.844;19.246;2024-02-14T12:35:52;8.20;99.90
32728;DHT22;55292;51.844;19.246;2024-02-14T12:40:56;8.20;99.90
32728;DHT22;55292;51.844;19.246;2024-02-14T12:52:04;8.20;99.90
32728;DHT22;55292;51.844;19.246;2024-02-14T12:57:07;8.30;99.90
32728;DHT22;55292;51.844;19.246;2024-02-14T13:02:10;8.20;99.90
32728;DHT22;55292;51.844;19.246;2024-02-14T13:07:13;8.30;99.90
32728;DHT22;55292;51.844;19.246;2024-02-14T13:12:19;8.40;99.90
32728;DHT22;55292;51.844;19.246;2024-02-14T13:17:22;8.30;99.90
32728;DHT22;55292;51.844;19.246;2024-02-14T13:22:26;8.10;99.90
32728;DHT22;55292;51.844;19.246;2024-02-14T13:27:29;8.20;99.90
32728;DHT22;55292;51.844;19.246;2024-02-14T13:32:32;8.30;99.90
32728;DHT22;55292;51.844;19.246;2024-02-14T13:37:35;8.30;99.90
32728;DHT22;55292;51.844;19.246;2024-02-14T13:42:38;8.20;99.90
32728;DHT22;55292;51.844;19.246;2024-02-14T13:47:41;8.40;99.90
32728;DHT22;55292;51.844;19.246;2024-02-14T13:52:48;8.60;99.90
32728;DHT22;55292;51.844;19.246;2024-02-14T13:57:51;9.10;99.90
32728;DHT22;55292;51.844;19.246;2024-02-14T14:02:53;9.30;99.90
32728;DHT22;55292;51.844;19.246;2024-02-14T14:07:58;9.30;99.90
32728;DHT22;55292;51.844;19.246;2024-02-14T14:13:03;9.00;99.90
32728;DHT22;55292;51.844;19.246;2024-02-14T14:18:06;8.90;99.90
32728;DHT22;55292;51.844;19.246;2024-02-14T14:23:11;8.80;99.90
32728;DHT22;55292;51.844;19.246;2024-02-14T14:28:14;8.80;99.90
32728;DHT22;55292;51.844;19.246;2024-02-14T14:33:17;9.00;99.90
32728;DHT22;55292;51.844;19.246;2024-02-14T14:38:21;8.80;99.90
32728;DHT22;55292;51.844;19.246;2024-02-14T14:43:24;8.60;99.90
32728;DHT22;55292;51.844;19.246;2024-02-14T14:48:27;8.40;99.90
32728;DHT22;55292;51.844;19.246;2024-02-14T14:53:30;8.30;99.90
32728;DHT22;55292;51.844;19.246;2024-02-14T14:58:33;8.20;99.90
32728;DHT22;55292;51.844;19.246;2024-02-14T15:03:38;8.10;99.90
32728;DHT22;55292;51.844;19.246;2024-02-14T15:08:40;8.10;99.90
32728;DHT22;55292;51.844;19.246;2024-02-14T15:13:47;8.00;99.90
32728;DHT22;55292;51.844;19.246;2024-02-14T15:18:50;7.90;99.90
32728;DHT22;55292;51.844;19.246;2024-02-14T15:23:53;7.70;99.90
32728;DHT22;55292;51.844;19.246;2024-02-14T15:28:56;7.60;99.90
32728;DHT22;55292;51.844;19.246;2024-02-14T15:34:18;7.50;99.90
32728;DHT22;55292;51.844;19.246;2024-02-14T15:39:21;7.50;99.90
32728;DHT22;55292;51.844;19.246;2024-02-14T15:44:25;7.50;99.90
32728;DHT22;55292;51.844;19.246;2024-02-14T15:49:28;7.40;99.90
32728;DHT22;55292;51.844;19.246;2024-02-14T15:54:33;7.30;99.90
32728;DHT22;55292;51.844;19.246;2024-02-14T15:59:36;7.30;99.90
32728;DHT22;55292;51.844;19.246;2024-02-14T16:04:39;7.30;99.90
32728;DHT22;55292;51.844;19.246;2024-02-14T16:09:41;7.20;99.90
32728;DHT22;55292;51.844;19.246;2024-02-14T16:14:44;7.10;99.90
32728;DHT22;55292;51.844;19.246;2024-02-14T16:19:49;7.10;99.90
32728;DHT22;55292;51.844;19.246;2024-02-14T16:24:52;7.10;99.90
32728;DHT22;55292;51.844;19.246;2024-02-14T16:29:56;6.90;99.90
32728;DHT22;55292;51.844;19.246;2024-02-14T16:35:00;7.00;99.90
32728;DHT22;55292;51.844;19.246;2024-02-14T16:40:03;6.90;99.90
32728;DHT22;55292;51.844;19.246;2024-02-14T16:45:08;6.90;99.90
32728;DHT22;55292;51.844;19.246;2024-02-14T16:50:11;6.80;99.90
32728;DHT22;55292;51.844;19.246;2024-02-14T16:55:15;6.80;99.90
32728;DHT22;55292;51.844;19.246;2024-02-14T17:00:18;6.80;99.90
32728;DHT22;55292;51.844;19.246;2024-02-14T17:05:20;6.80;99.90
32728;DHT22;55292;51.844;19.246;2024-02-14T17:10:26;6.70;99.90
32728;DHT22;55292;51.844;19.246;2024-02-14T17:15:29;6.60;99.90
32728;DHT22;55292;51.844;19.246;2024-02-14T17:20:32;6.60;99.90
32728;DHT22;55292;51.844;19.246;2024-02-14T17:25:34;6.60;99.90
32728;DHT22;55292;51.844;19.246;2024-02-14T17:30:40;6.60;99.90
32728;DHT22;55292;51.844;19.246;2024-02-14T17:35:48;6.60;99.90
32728;DHT22;55292;51.844;19.246;2024-02-14T17:40:51;6.60;99.90
32728;DHT22;55292;51.844;19.246;2024-02-14T17:45:59;6.60;99.90
32728;DHT22;55292;51.844;19.246;2024-02-14T17:51:18;6.60;99.90
32728;DHT22;55292;51.844;19.246;2024-02-14T17:56:21;6.60;99.90
32728;DHT22;55292;51.844;19.246;2024-02-14T18:01:24;6.60;99.90
32728;DHT22;55292;51.844;19.246;2024-02-14T18:06:27;6.50;99.90
32728;DHT22;55292;51.844;19.246;2024-02-14T18:11:30;6.50;99.90
32728;DHT22;55292;51.844;19.246;2024-02-14T18:16:33;6.40;99.90
32728;DHT22;55292;51.844;19.246;2024-02-14T18:21:36;6.40;99.90
32728;DHT22;55292;51.844;19.246;2024-02-14T18:26:38;6.30;99.90
32728;DHT22;55292;51.844;19.246;2024-02-14T18:31:41;6.10;99.90
32728;DHT22;55292;51.844;19.246;2024-02-14T18:36:44;6.00;99.90
32728;DHT22;55292;51.844;19.246;2024-02-14T18:41:47;6.00;99.90
32728;DHT22;55292;51.844;19.246;2024-02-14T18:46:50;6.00;99.90
32728;DHT22;55292;51.844;19.246;2024-02-14T18:51:54;6.00;99.90
32728;DHT22;55292;51.844;19.246;2024-02-14T18:56:57;6.00;99.90
32728;DHT22;55292;51.844;19.246;2024-02-14T19:02:00;6.00;99.90
32728;DHT22;55292;51.844;19.246;2024-02-14T19:07:03;6.10;99.90
32728;DHT22;55292;51.844;19.246;2024-02-14T19:12:06;6.10;99.90
32728;DHT22;55292;51.844;19.246;2024-02-14T19:17:10;6.10;99.90
32728;DHT22;55292;51.844;19.246;2024-02-14T19:22:13;6.10;99.90
32728;DHT22;55292;51.844;19.246;2024-02-14T19:27:16;6.00;99.90
32728;DHT22;55292;51.844;19.246;2024-02-14T19:32:22;6.00;99.90
32728;DHT22;55292;51.844;19.246;2024-02-14T19:37:25;6.00;99.90
32728;DHT22;55292;51.844;19.246;2024-02-14T19:42:28;5.90;99.90
32728;DHT22;55292;51.844;19.246;2024-02-14T19:47:32;6.00;99.90
32728;DHT22;55292;51.844;19.246;2024-02-14T19:52:38;6.10;99.90
32728;DHT22;55292;51.844;19.246;2024-02-14T19:57:41;6.10;99.90
32728;DHT22;55292;51.844;19.246;2024-02-14T20:02:45;6.10;99.90
32728;DHT22;55292;51.844;19.246;2024-02-14T20:07:51;6.10;99.90
32728;DHT22;55292;51.844;19.246;2024-02-14T20:12:54;6.20;99.90
32728;DHT22;55292;51.844;19.246;2024-02-14T20:17:56;6.10;99.90
32728;DHT22;55292;51.844;19.246;2024-02-14T20:23:02;6.10;99.90
32728;DHT22;55292;51.844;19.246;2024-02-14T20:28:05;6.10;99.90
32728;DHT22;55292;51.844;19.246;2024-02-14T20:33:08;6.10;99.90
32728;DHT22;55292;51.844;19.246;2024-02-14T20:38:11;6.00;99.90
32728;DHT22;55292;51.844;19.246;2024-02-14T20:43:14;6.00;99.90
32728;DHT22;55292;51.844;19.246;2024-02-14T20:48:17;6.00;99.90
32728;DHT22;55292;51.844;19.246;2024-02-14T20:53:20;6.00;99.90
32728;DHT22;55292;51.844;19.246;2024-02-14T20:58:23;6.00;99.90
32728;DHT22;55292;51.844;19.246;2024-02-14T21:03:28;6.00;99.90
32728;DHT22;55292;51.844;19.246;2024-02-14T21:08:31;6.00;99.90
32728;DHT22;55292;51.844;19.246;2024-02-14T21:13:34;5.90;99.90
32728;DHT22;55292;51.844;19.246;2024-02-14T21:18:40;5.90;99.90
32728;DHT22;55292;51.844;19.246;2024-02-14T21:23:43;6.00;99.90
32728;DHT22;55292;51.844;19.246;2024-02-14T21:28:45;6.10;99.90
32728;DHT22;55292;51.844;19.246;2024-02-14T21:33:48;6.10;99.90
32728;DHT22;55292;51.844;19.246;2024-02-14T21:38:52;6.00;99.90
32728;DHT22;55292;51.844;19.246;2024-02-14T21:43:55;6.10;99.90
32728;DHT22;55292;51.844;19.246;2024-02-14T21:48:58;6.10;99.90
32728;DHT22;55292;51.844;19.246;2024-02-14T21:54:01;6.10;99.90
32728;DHT22;55292;51.844;19.246;2024-02-14T21:59:04;8.20;99.90
32728;DHT22;55292;51.844;19.246;2024-02-14T22:04:07;6.10;99.90
32728;DHT22;55292;51.844;19.246;2024-02-14T22:09:12;6.20;99.90
32728;DHT22;55292;51.844;19.246;2024-02-14T22:14:18;6.20;99.90
32728;DHT22;55292;51.844;19.246;2024-02-14T22:19:24;6.20;99.90
32728;DHT22;55292;51.844;19.246;2024-02-14T22:24:27;6.30;99.90
32728;DHT22;55292;51.844;19.246;2024-02-14T22:29:31;6.20;99.90
32728;DHT22;55292;51.844;19.246;2024-02-14T22:34:37;6.20;99.90
32728;DHT22;55292;51.844;19.246;2024-02-14T22:39:42;6.20;99.90
32728;DHT22;55292;51.844;19.246;2024-02-14T22:44:45;6.20;99.90
32728;DHT22;55292;51.844;19.246;2024-02-14T22:49:48;6.30;99.90
32728;DHT22;55292;51.844;19.246;2024-02-14T22:54:51;7.00;99.90
32728;DHT22;55292;51.844;19.246;2024-02-14T22:59:55;6.30;99.90
32728;DHT22;55292;51.844;19.246;2024-02-14T23:04:57;6.30;99.90
32728;DHT22;55292;51.844;19.246;2024-02-14T23:10:01;6.30;99.90
32728;DHT22;55292;51.844;19.246;2024-02-14T23:15:04;6.30;99.90
32728;DHT22;55292;51.844;19.246;2024-02-14T23:20:08;6.40;99.90
32728;DHT22;55292;51.844;19.246;2024-02-14T23:25:14;6.40;99.90
32728;DHT22;55292;51.844;19.246;2024-02-14T23:30:17;6.40;99.90
32728;DHT22;55292;51.844;19.246;2024-02-14T23:35:33;6.40;99.90
32728;DHT22;55292;51.844;19.246;2024-02-14T23:40:35;6.40;99.90
32728;DHT22;55292;51.844;19.246;2024-02-14T23:45:38;6.40;99.90
32728;DHT22;55292;51.844;19.246;2024-02-14T23:50:43;6.40;99.90
32728;DHT22;55292;51.844;19.246;2024-02-14T23:55:48;6.40;99.90
